South Saint Paul, Minnesota
Current Conditions -  °F | °C
As of 1:30 AM on Wednesday 22 Oct 2014 (Local Time) from KSGS Reporting Station
Clear Clear  
Wind Chill: 41°   Ceiling: Unl
Heat Index: 46°   Visibility: 10mi
Dew Point: 37°   Wind: 10mph
Humidity: 71%   Direction: 140°SE
Pressure: 30.19"   Gusts: NA
Location:  44.89°N, 93.03°W
Report Text: KSGS 220630Z AUTO 14009KT 10SM CLR 08/03 A3019 RMK AO2 T00760027
Loading
Personal Weather Stations






























Interactive Weather Map
Tropical Storm Tracking
New forecast layout! Learn more

10-Day Weather Forecast

Advertisements
Track Severe Weather on mobile